createdAt,value
2019-05-25T00:02:03.045Z,70.20
2019-05-25T00:04:34.269Z,70.10
2019-05-25T00:07:05.914Z,70.00
2019-05-25T00:09:37.753Z,69.90
2019-05-25T00:12:09.419Z,69.80
2019-05-25T00:14:41.034Z,69.80
2019-05-25T00:17:12.330Z,69.70
2019-05-25T00:19:43.874Z,69.70
2019-05-25T00:22:15.479Z,70.70
2019-05-25T00:24:47.003Z,69.70
2019-05-25T00:27:18.397Z,69.80
2019-05-25T00:29:50.150Z,69.70
2019-05-25T00:32:23.452Z,69.60
2019-05-25T00:34:54.843Z,69.70
2019-05-25T00:37:26.787Z,69.70
2019-05-25T00:39:58.042Z,69.60
2019-05-25T00:42:29.882Z,69.50
2019-05-25T00:45:00.022Z,69.40
2019-05-25T00:47:31.076Z,69.50
2019-05-25T00:50:02.677Z,69.40
2019-05-25T00:52:33.957Z,69.50
2019-05-25T00:55:05.779Z,69.40
2019-05-25T00:57:35.943Z,69.40
2019-05-25T01:00:09.421Z,69.40
2019-05-25T01:02:41.214Z,69.40
2019-05-25T01:05:12.904Z,69.30
2019-05-25T01:07:44.391Z,69.20
2019-05-25T01:10:15.852Z,69.20
2019-05-25T01:12:47.439Z,69.10
2019-05-25T01:15:20.579Z,69.10
2019-05-25T01:17:51.836Z,69.20
2019-05-25T01:20:23.678Z,69.30
2019-05-25T01:22:53.820Z,69.10
2019-05-25T01:25:25.201Z,68.90
2019-05-25T01:27:56.436Z,68.80
2019-05-25T01:30:27.671Z,68.80
2019-05-25T01:32:58.938Z,68.80
2019-05-25T01:35:30.167Z,68.80
2019-05-25T01:38:02.018Z,68.80
2019-05-25T01:40:33.686Z,68.90
2019-05-25T01:43:05.554Z,68.80
2019-05-25T01:45:37.359Z,68.70
2019-05-25T01:48:07.634Z,69.10
2019-05-25T01:50:38.818Z,68.90
2019-05-25T01:53:11.704Z,68.80
2019-05-25T01:55:43.101Z,69.00
2019-05-25T01:58:14.336Z,68.80
2019-05-25T02:00:45.551Z,68.70
2019-05-25T02:03:16.932Z,68.70
2019-05-25T02:05:48.176Z,68.70
2019-05-25T02:08:19.420Z,68.70
2019-05-25T02:10:50.888Z,68.90
2019-05-25T02:13:22.270Z,68.80
2019-05-25T02:15:53.437Z,68.90
2019-05-25T02:18:24.968Z,69.10
2019-05-25T02:20:56.255Z,70.00
2019-05-25T02:23:27.438Z,68.40
2019-05-25T02:25:58.633Z,67.30
2019-05-25T02:28:29.921Z,66.90
2019-05-25T02:31:01.183Z,67.90
2019-05-25T02:33:33.066Z,68.40
2019-05-25T02:36:04.683Z,68.40
2019-05-25T02:38:35.960Z,68.80
2019-05-25T02:41:08.279Z,69.00
2019-05-25T02:43:39.954Z,69.10
2019-05-25T02:46:11.162Z,69.30
2019-05-25T02:48:42.810Z,69.40
2019-05-25T02:51:14.467Z,69.50
2019-05-25T02:53:45.699Z,69.30
2019-05-25T02:56:16.961Z,69.30
2019-05-25T02:58:48.745Z,69.50
2019-05-25T03:01:19.024Z,69.50
2019-05-25T03:03:50.027Z,69.40
2019-05-25T03:06:22.129Z,69.30
2019-05-25T03:08:55.750Z,69.30
2019-05-25T03:11:28.410Z,69.30
2019-05-25T03:14:01.542Z,69.10
2019-05-25T03:16:32.767Z,69.40
2019-05-25T03:19:04.297Z,69.10
2019-05-25T03:21:36.479Z,67.90
2019-05-25T03:24:08.287Z,67.70
2019-05-25T03:26:38.448Z,68.30
2019-05-25T03:29:09.784Z,68.60
2019-05-25T03:31:40.966Z,68.80
2019-05-25T03:34:12.243Z,69.10
2019-05-25T03:36:44.466Z,69.30
2019-05-25T03:39:15.643Z,69.30
2019-05-25T03:41:47.535Z,69.30
2019-05-25T03:44:20.463Z,69.30
2019-05-25T03:46:52.012Z,69.30
2019-05-25T03:49:23.203Z,69.30
2019-05-25T03:51:54.384Z,69.30
2019-05-25T03:54:25.756Z,69.50
2019-05-25T03:56:57.492Z,69.60
2019-05-25T03:59:27.593Z,69.60
2019-05-25T04:01:58.694Z,69.60
2019-05-25T04:04:30.830Z,69.70
2019-05-25T04:07:02.393Z,69.60
2019-05-25T04:09:34.230Z,69.70
2019-05-25T04:12:04.357Z,69.50
2019-05-25T04:14:35.674Z,69.60
2019-05-25T04:17:07.254Z,70.00
2019-05-25T04:19:38.479Z,69.50
2019-05-25T04:22:09.725Z,69.80
2019-05-25T04:24:40.913Z,70.00
2019-05-25T04:27:12.155Z,70.10
2019-05-25T04:29:44.198Z,70.00
2019-05-25T04:32:15.732Z,69.90
2019-05-25T04:34:47.256Z,69.70
2019-05-25T04:37:18.819Z,69.60
2019-05-25T04:39:50.386Z,69.50
2019-05-25T04:42:21.705Z,69.50
2019-05-25T04:44:52.909Z,69.50
2019-05-25T04:47:26.895Z,69.60
2019-05-25T04:49:58.077Z,69.60
2019-05-25T04:52:29.738Z,69.80
2019-05-25T04:55:01.329Z,69.90
2019-05-25T04:57:32.767Z,70.00
2019-05-25T05:00:04.825Z,70.00
2019-05-25T05:02:36.113Z,70.00
2019-05-25T05:05:07.861Z,70.10
2019-05-25T05:07:39.498Z,70.20
2019-05-25T05:10:11.712Z,70.30
2019-05-25T05:12:43.363Z,70.10
2019-05-25T05:15:15.231Z,70.10
2019-05-25T05:17:46.719Z,70.20
2019-05-25T05:20:18.041Z,70.10
2019-05-25T05:22:49.288Z,70.20
2019-05-25T05:25:20.510Z,70.20
2019-05-25T05:27:51.896Z,70.10
2019-05-25T05:30:32.669Z,70.10
2019-05-25T05:33:04.714Z,70.30
2019-05-25T05:35:38.858Z,70.50
2019-05-25T05:38:09.198Z,70.60
2019-05-25T05:40:41.050Z,70.80
2019-05-25T05:43:12.473Z,71.20
2019-05-25T05:45:45.054Z,71.10
2019-05-25T05:48:18.493Z,71.20
2019-05-25T05:50:52.933Z,71.30
2019-05-25T05:53:25.700Z,71.60
2019-05-25T05:55:56.951Z,71.50
2019-05-25T05:58:28.666Z,71.60
2019-05-25T06:00:59.898Z,71.60
2019-05-25T06:03:31.431Z,71.60
2019-05-25T06:06:03.292Z,71.60
2019-05-25T06:08:34.442Z,72.00
2019-05-25T06:11:07.041Z,72.00
2019-05-25T06:13:39.143Z,72.20
2019-05-25T06:16:10.627Z,71.90
2019-05-25T06:18:42.607Z,72.50
2019-05-25T06:21:13.906Z,72.00
2019-05-25T06:23:45.420Z,72.60
2019-05-25T06:26:16.856Z,72.70
2019-05-25T06:28:48.130Z,72.70
2019-05-25T06:31:19.333Z,72.90
2019-05-25T06:33:50.586Z,73.00
2019-05-25T06:36:21.779Z,72.70
2019-05-25T06:38:53.704Z,72.50
2019-05-25T06:41:25.270Z,72.50
2019-05-25T06:43:56.443Z,72.40
2019-05-25T06:46:27.644Z,72.50
2019-05-25T06:48:58.859Z,72.30
2019-05-25T06:51:30.065Z,73.20
2019-05-25T06:54:01.645Z,71.90
2019-05-25T06:56:32.910Z,71.80
2019-05-25T06:59:04.302Z,72.20
2019-05-25T07:01:35.919Z,72.10
2019-05-25T07:04:07.482Z,71.70
2019-05-25T07:06:42.602Z,72.60
2019-05-25T07:09:14.105Z,71.70
2019-05-25T07:11:45.260Z,71.20
2019-05-25T07:14:16.819Z,71.60
2019-05-25T07:16:48.824Z,71.70
2019-05-25T07:19:20.601Z,71.30
2019-05-25T07:21:50.780Z,71.80
2019-05-25T07:24:22.577Z,71.90
2019-05-25T07:26:53.748Z,71.30
2019-05-25T07:29:25.057Z,72.00
2019-05-25T07:31:56.638Z,72.00
2019-05-25T07:34:28.260Z,71.90
2019-05-25T07:36:59.467Z,72.00
2019-05-25T07:39:30.974Z,72.00
2019-05-25T07:42:02.899Z,71.80
2019-05-25T07:44:34.093Z,71.80
2019-05-25T07:47:11.279Z,71.80
2019-05-25T07:49:44.540Z,71.50
2019-05-25T07:52:16.122Z,71.50
2019-05-25T07:54:48.073Z,71.50
2019-05-25T07:57:19.361Z,71.00
2019-05-25T07:59:51.253Z,71.40
2019-05-25T08:02:22.556Z,71.50
2019-05-25T08:04:55.405Z,71.30
2019-05-25T08:07:25.619Z,71.50
2019-05-25T08:09:57.048Z,71.60
2019-05-25T08:12:29.554Z,71.30
2019-05-25T08:15:01.181Z,70.90
2019-05-25T08:17:32.476Z,71.20
2019-05-25T08:20:03.777Z,71.10
2019-05-25T08:22:35.074Z,71.10
2019-05-25T08:25:06.931Z,70.60
2019-05-25T08:27:37.050Z,70.60
2019-05-25T08:30:08.950Z,70.70
2019-05-25T08:32:40.570Z,70.60
2019-05-25T08:35:12.324Z,70.50
2019-05-25T08:37:42.785Z,70.60
2019-05-25T08:40:14.297Z,70.60
2019-05-25T08:42:46.123Z,70.70
2019-05-25T08:45:16.344Z,70.80
2019-05-25T08:47:47.313Z,70.70
2019-05-25T08:50:20.415Z,70.80
2019-05-25T08:52:51.666Z,70.60
2019-05-25T08:55:23.158Z,70.80
2019-05-25T08:57:54.310Z,71.20
2019-05-25T09:00:25.672Z,70.60
2019-05-25T09:02:56.941Z,71.10
2019-05-25T09:05:28.258Z,70.80
2019-05-25T09:07:59.848Z,71.00
2019-05-25T09:10:31.383Z,71.00
2019-05-25T09:13:03.812Z,71.10
2019-05-25T09:15:35.848Z,71.30
2019-05-25T09:18:07.211Z,70.90
2019-05-25T09:20:38.842Z,70.70
2019-05-25T09:23:10.080Z,70.60
2019-05-25T09:25:41.941Z,70.50
2019-05-25T09:28:12.411Z,70.30
2019-05-25T09:30:43.784Z,70.30
2019-05-25T09:33:15.050Z,70.20
2019-05-25T09:35:47.539Z,70.00
2019-05-25T09:38:19.397Z,70.30
2019-05-25T09:40:50.971Z,70.30
2019-05-25T09:43:22.291Z,70.20
2019-05-25T09:45:54.531Z,70.20
2019-05-25T09:48:26.525Z,70.20
2019-05-25T09:50:57.999Z,70.30
2019-05-25T09:53:29.171Z,70.30
2019-05-25T09:56:00.406Z,70.20
2019-05-25T09:58:31.704Z,70.30
2019-05-25T10:01:03.918Z,70.40
2019-05-25T10:03:35.703Z,70.30
2019-05-25T10:06:11.981Z,69.90
2019-05-25T10:08:39.015Z,70.30
2019-05-25T10:11:10.182Z,69.90
2019-05-25T10:13:41.993Z,70.30
2019-05-25T10:16:13.256Z,70.20
2019-05-25T10:18:45.517Z,70.40
2019-05-25T10:21:17.033Z,70.20
2019-05-25T10:23:49.274Z,70.30
2019-05-25T10:26:22.993Z,70.30
2019-05-25T10:28:53.371Z,70.20
2019-05-25T10:31:24.846Z,70.70
2019-05-25T10:33:56.030Z,70.60
2019-05-25T10:36:27.514Z,70.70
2019-05-25T10:38:58.759Z,70.30
2019-05-25T10:41:30.248Z,70.20
2019-05-25T10:44:01.869Z,70.60
2019-05-25T10:46:33.707Z,70.50
2019-05-25T10:49:05.281Z,70.50
2019-05-25T10:51:36.376Z,70.50
2019-05-25T10:54:07.646Z,70.50
2019-05-25T10:56:38.968Z,70.50
2019-05-25T10:59:10.205Z,71.20
2019-05-25T11:01:41.354Z,70.40
2019-05-25T11:04:12.502Z,70.40
2019-05-25T11:06:44.045Z,70.60
2019-05-25T11:09:15.684Z,70.50
2019-05-25T11:11:47.431Z,70.30
2019-05-25T11:14:18.019Z,70.60
2019-05-25T11:16:49.740Z,70.50
2019-05-25T11:19:24.221Z,70.40
2019-05-25T11:21:54.297Z,70.70
2019-05-25T11:24:27.371Z,70.60
2019-05-25T11:26:59.716Z,70.20
2019-05-25T11:29:31.388Z,70.00
2019-05-25T11:32:05.471Z,69.80
2019-05-25T11:34:36.323Z,70.00
2019-05-25T11:37:07.920Z,69.90
2019-05-25T11:39:39.802Z,69.60
2019-05-25T11:42:11.397Z,69.70
2019-05-25T11:44:42.634Z,69.70
2019-05-25T11:47:14.175Z,69.60
2019-05-25T11:49:45.842Z,69.80
2019-05-25T11:52:17.475Z,69.90
2019-05-25T11:54:48.980Z,69.60
2019-05-25T11:57:20.495Z,69.50
2019-05-25T11:59:52.699Z,69.60
2019-05-25T12:02:24.242Z,69.40
2019-05-25T12:04:56.578Z,69.80
2019-05-25T12:07:27.795Z,69.50
2019-05-25T12:09:58.983Z,69.30
2019-05-25T12:12:30.263Z,69.20
2019-05-25T12:15:01.956Z,68.90
2019-05-25T12:17:33.194Z,68.60
2019-05-25T12:20:04.835Z,68.80
2019-05-25T12:22:36.159Z,68.90
2019-05-25T12:25:08.151Z,68.80
2019-05-25T12:27:39.740Z,68.40
2019-05-25T12:30:11.908Z,68.70
2019-05-25T12:32:43.877Z,68.60
2019-05-25T12:35:17.360Z,68.70
2019-05-25T12:37:49.263Z,68.90
2019-05-25T12:40:19.649Z,68.80
2019-05-25T12:42:50.732Z,68.80
2019-05-25T12:45:23.777Z,68.60
2019-05-25T12:47:55.136Z,68.80
2019-05-25T12:50:26.685Z,69.00
2019-05-25T12:52:58.183Z,68.70
2019-05-25T12:55:30.310Z,68.90
2019-05-25T12:58:01.547Z,68.80
2019-05-25T13:00:33.013Z,68.90
2019-05-25T13:03:04.723Z,69.20
2019-05-25T13:05:35.936Z,69.30
2019-05-25T13:08:07.240Z,69.60
2019-05-25T13:10:38.558Z,69.50
2019-05-25T13:13:09.823Z,69.60
2019-05-25T13:15:41.628Z,69.70
2019-05-25T13:18:12.041Z,69.70
2019-05-25T13:20:43.611Z,69.50
2019-05-25T13:23:13.740Z,69.50
2019-05-25T13:26:55.534Z,69.70
2019-05-25T13:29:27.397Z,69.60
2019-05-25T13:31:58.898Z,70.00
2019-05-25T13:34:30.618Z,69.50
2019-05-25T13:37:02.211Z,70.00
2019-05-25T13:39:32.638Z,70.00
2019-05-25T13:42:03.666Z,69.90
2019-05-25T13:44:35.237Z,70.00
2019-05-25T13:47:07.543Z,70.00
2019-05-25T13:49:39.465Z,70.10
2019-05-25T13:52:11.372Z,70.00
2019-05-25T13:54:42.639Z,69.70
2019-05-25T13:57:13.892Z,70.00
2019-05-25T13:59:45.446Z,69.80
2019-05-25T14:02:16.717Z,70.00
2019-05-25T14:04:49.518Z,70.00
2019-05-25T14:07:20.687Z,69.90
2019-05-25T14:09:51.859Z,69.80
2019-05-25T14:12:23.649Z,69.30
2019-05-25T14:14:54.110Z,69.30
2019-05-25T14:17:25.473Z,69.20
2019-05-25T14:19:56.746Z,69.50
2019-05-25T14:22:28.000Z,69.60
2019-05-25T14:25:00.286Z,69.70
2019-05-25T14:27:31.821Z,70.50
2019-05-25T14:30:05.184Z,69.70
2019-05-25T14:32:36.862Z,69.30
2019-05-25T14:35:09.056Z,69.50
2019-05-25T14:37:40.612Z,69.40
2019-05-25T14:40:12.211Z,69.50
2019-05-25T14:42:43.849Z,69.40
2019-05-25T14:45:16.369Z,69.40
2019-05-25T14:47:47.916Z,69.50
2019-05-25T14:50:19.452Z,69.20
2019-05-25T14:52:50.941Z,69.30
2019-05-25T14:55:22.577Z,70.50
2019-05-25T14:57:53.772Z,70.40
2019-05-25T15:00:25.088Z,69.50
2019-05-25T15:02:56.682Z,69.50
2019-05-25T15:05:27.953Z,69.50
2019-05-25T15:07:59.630Z,69.40
2019-05-25T15:10:31.239Z,69.30
2019-05-25T15:13:02.419Z,69.20
2019-05-25T15:15:33.599Z,69.20
2019-05-25T15:18:05.730Z,69.80
2019-05-25T15:20:37.661Z,69.60
2019-05-25T15:23:08.815Z,69.50
2019-05-25T15:25:40.272Z,69.60
2019-05-25T15:28:11.904Z,69.50
2019-05-25T15:30:43.109Z,69.50
2019-05-25T15:33:15.953Z,69.60
2019-05-25T15:35:47.576Z,69.70
2019-05-25T15:38:20.674Z,69.90
2019-05-25T15:40:53.752Z,69.80
2019-05-25T15:43:25.906Z,70.10
2019-05-25T15:45:57.114Z,70.00
2019-05-25T15:48:31.044Z,70.10
2019-05-25T15:51:02.788Z,70.00
2019-05-25T15:53:34.442Z,70.00
2019-05-25T15:56:06.450Z,69.90
2019-05-25T15:58:38.882Z,70.00
2019-05-25T16:01:10.813Z,69.90
2019-05-25T16:03:42.330Z,70.10
2019-05-25T16:06:14.781Z,70.10
2019-05-25T16:08:46.807Z,70.00
2019-05-25T16:11:17.058Z,69.70
2019-05-25T16:13:48.212Z,70.00
2019-05-25T16:16:20.208Z,69.90
2019-05-25T16:18:51.692Z,70.30
2019-05-25T16:21:23.639Z,70.00
2019-05-25T16:23:54.867Z,70.30
2019-05-25T16:26:26.693Z,70.50
2019-05-25T16:29:00.034Z,70.40
2019-05-25T16:31:31.712Z,70.00
2019-05-25T16:34:04.893Z,70.80
2019-05-25T16:36:36.684Z,70.20
2019-05-25T16:39:08.676Z,71.10
2019-05-25T16:41:39.006Z,70.80
2019-05-25T16:44:11.021Z,71.20
2019-05-25T16:46:42.384Z,71.40
2019-05-25T16:49:14.655Z,71.60
2019-05-25T16:51:46.910Z,71.50
2019-05-25T16:54:18.279Z,71.60
2019-05-25T16:56:49.896Z,71.60
2019-05-25T16:59:21.531Z,71.60
2019-05-25T17:01:52.214Z,71.70
2019-05-25T17:04:23.607Z,72.10
2019-05-25T17:06:55.251Z,71.90
2019-05-25T17:09:26.583Z,72.00
2019-05-25T17:11:58.042Z,71.80
2019-05-25T17:14:29.750Z,72.20
2019-05-25T17:17:02.188Z,72.30
2019-05-25T17:19:34.670Z,72.50
2019-05-25T17:22:06.508Z,72.00
2019-05-25T17:24:39.214Z,72.00
2019-05-25T17:27:10.485Z,72.20
2019-05-25T17:29:42.285Z,72.20
2019-05-25T17:32:15.368Z,72.40
2019-05-25T17:34:48.027Z,72.20
2019-05-25T17:37:20.583Z,72.30
2019-05-25T17:39:52.186Z,71.80
2019-05-25T17:42:24.001Z,72.00
2019-05-25T17:44:56.028Z,72.70
2019-05-25T17:47:27.343Z,72.70
2019-05-25T17:49:59.286Z,72.70
2019-05-25T17:52:31.762Z,72.30
2019-05-25T17:55:03.304Z,72.30
2019-05-25T17:57:34.591Z,71.60
2019-05-25T18:00:06.675Z,72.50
2019-05-25T18:02:37.991Z,72.30
2019-05-25T18:05:11.530Z,72.20
2019-05-25T18:07:43.159Z,72.30
2019-05-25T18:10:14.894Z,72.10
2019-05-25T18:12:47.721Z,71.90
2019-05-25T18:15:20.102Z,72.40
2019-05-25T18:17:51.415Z,73.00
2019-05-25T18:20:23.233Z,73.10
2019-05-25T18:22:54.287Z,73.00
2019-05-25T18:25:25.725Z,73.50
2019-05-25T18:27:56.992Z,73.80
2019-05-25T18:30:29.143Z,74.00
2019-05-25T18:33:00.454Z,74.30
2019-05-25T18:35:31.801Z,74.40
2019-05-25T18:38:04.475Z,74.10
2019-05-25T18:40:35.758Z,73.80
2019-05-25T18:43:06.990Z,74.20
2019-05-25T18:45:38.207Z,74.20
2019-05-25T18:48:09.421Z,75.10
2019-05-25T18:50:41.495Z,74.50
2019-05-25T18:53:13.595Z,74.20
2019-05-25T18:55:45.362Z,73.70
2019-05-25T18:58:18.027Z,74.60
2019-05-25T19:00:49.293Z,73.70
2019-05-25T19:03:20.620Z,74.50
2019-05-25T19:05:52.785Z,70.10
2019-05-25T19:08:24.079Z,67.00
2019-05-25T19:10:56.067Z,64.60
2019-05-25T19:13:27.722Z,62.90
2019-05-25T19:15:59.264Z,63.10
2019-05-25T19:18:31.175Z,67.30
2019-05-25T19:21:02.839Z,68.70
2019-05-25T19:23:35.543Z,68.30
2019-05-25T19:26:07.074Z,71.00
2019-05-25T19:28:38.378Z,70.10
2019-05-25T19:31:09.667Z,70.40
2019-05-25T19:33:41.995Z,70.40
2019-05-25T19:36:13.191Z,71.40
2019-05-25T19:38:44.512Z,71.70
2019-05-25T19:41:16.019Z,71.90
2019-05-25T19:43:47.883Z,72.40
2019-05-25T19:46:19.801Z,72.40
2019-05-25T19:48:51.697Z,72.40
2019-05-25T19:51:22.047Z,72.20
2019-05-25T19:53:54.384Z,72.90
2019-05-25T19:56:26.787Z,72.30
2019-05-25T19:58:59.123Z,73.10
2019-05-25T20:01:31.224Z,72.70
2019-05-25T20:04:06.039Z,73.00
2019-05-25T20:06:41.262Z,72.90
2019-05-25T20:09:13.190Z,72.90
2019-05-25T20:11:43.655Z,73.60
2019-05-25T20:14:16.144Z,73.30
2019-05-25T20:16:47.631Z,72.80
2019-05-25T20:19:19.659Z,73.10
2019-05-25T20:21:52.193Z,73.30
2019-05-25T20:24:24.062Z,72.50
2019-05-25T20:26:54.688Z,72.20
2019-05-25T20:29:27.245Z,73.00
2019-05-25T20:31:58.558Z,72.10
2019-05-25T20:34:29.898Z,72.00
2019-05-25T20:37:01.926Z,72.00
2019-05-25T20:39:33.239Z,72.20
2019-05-25T20:42:04.652Z,72.40
2019-05-25T20:44:35.991Z,72.50
2019-05-25T20:47:08.283Z,72.40
2019-05-25T20:49:40.041Z,72.30
2019-05-25T20:52:10.359Z,72.30
2019-05-25T20:54:41.935Z,72.60
2019-05-25T20:57:12.240Z,72.90
2019-05-25T20:59:43.670Z,72.70
2019-05-25T21:02:14.934Z,72.70
2019-05-25T21:04:46.678Z,72.60
2019-05-25T21:07:18.529Z,72.70
2019-05-25T21:09:50.808Z,73.40
2019-05-25T21:12:21.886Z,73.20
2019-05-25T21:14:53.305Z,73.00
2019-05-25T21:17:24.591Z,73.10
2019-05-25T21:19:56.404Z,73.30
2019-05-25T21:22:27.812Z,73.30
2019-05-25T21:25:05.541Z,73.40
2019-05-25T21:27:33.229Z,73.50
2019-05-25T21:30:03.854Z,73.60
2019-05-25T21:32:35.729Z,73.40
2019-05-25T21:35:07.491Z,73.30
2019-05-25T21:37:38.755Z,73.60
2019-05-25T21:40:12.465Z,73.70
2019-05-25T21:42:47.326Z,73.80
2019-05-25T21:45:19.017Z,74.00
2019-05-25T21:47:50.339Z,73.70
2019-05-25T21:50:21.639Z,73.60
2019-05-25T21:52:52.934Z,73.70
2019-05-25T21:55:24.143Z,73.90
2019-05-25T21:57:56.105Z,73.70
2019-05-25T22:00:29.195Z,73.60
2019-05-25T22:03:03.756Z,73.60
2019-05-25T22:05:36.023Z,73.50
2019-05-25T22:08:07.633Z,73.40
2019-05-25T22:10:38.999Z,73.60
2019-05-25T22:13:25.332Z,73.40
2019-05-25T22:15:43.639Z,74.20
2019-05-25T22:18:15.941Z,73.60
2019-05-25T22:20:47.485Z,73.40
2019-05-25T22:23:18.685Z,73.30
2019-05-25T22:25:50.049Z,73.60
2019-05-25T22:28:21.588Z,73.40
2019-05-25T22:30:53.054Z,73.60
2019-05-25T22:33:25.005Z,73.40
2019-05-25T22:35:56.591Z,73.60
2019-05-25T22:38:28.114Z,73.40
2019-05-25T22:40:59.659Z,73.40
2019-05-25T22:43:31.628Z,73.40
2019-05-25T22:46:02.878Z,73.40
2019-05-25T22:48:34.137Z,73.40
2019-05-25T22:51:05.387Z,73.40
2019-05-25T22:53:36.711Z,73.50
2019-05-25T22:56:08.281Z,73.70
2019-05-25T22:58:39.556Z,73.80
2019-05-25T23:01:11.033Z,73.80
2019-05-25T23:03:42.588Z,75.10
2019-05-25T23:06:14.882Z,74.10
2019-05-25T23:08:46.598Z,74.30
2019-05-25T23:11:17.795Z,74.70
2019-05-25T23:13:49.029Z,74.50
2019-05-25T23:16:20.720Z,74.70
2019-05-25T23:18:52.878Z,74.70
2019-05-25T23:21:24.058Z,74.80
2019-05-25T23:23:55.670Z,75.00
2019-05-25T23:26:26.894Z,75.20
2019-05-25T23:28:58.232Z,75.10
2019-05-25T23:31:29.443Z,76.10
2019-05-25T23:34:01.020Z,75.00
2019-05-25T23:36:33.270Z,75.30
2019-05-25T23:39:06.006Z,75.50
2019-05-25T23:41:37.229Z,75.50
2019-05-25T23:44:09.395Z,75.70
2019-05-25T23:46:40.916Z,75.60
2019-05-25T23:49:12.096Z,76.10
2019-05-25T23:51:43.656Z,75.30
2019-05-25T23:54:14.882Z,76.20
2019-05-25T23:56:46.126Z,76.90
2019-05-25T23:59:17.656Z,76.20
